sensor_id;sensor_type;location;lat;lon;timestamp;P1;durP1;ratioP1;P2;durP2;ratioP2
8592;SDS011;4334;49.982;8.398;2024-03-08T00:01:46;14.10;;;7.87;;
8592;SDS011;4334;49.982;8.398;2024-03-08T00:04:12;12.83;;;7.23;;
8592;SDS011;4334;49.982;8.398;2024-03-08T00:06:40;13.20;;;7.97;;
8592;SDS011;4334;49.982;8.398;2024-03-08T00:09:07;14.13;;;7.70;;
8592;SDS011;4334;49.982;8.398;2024-03-08T00:11:33;15.77;;;7.80;;
8592;SDS011;4334;49.982;8.398;2024-03-08T00:14:00;14.57;;;7.87;;
8592;SDS011;4334;49.982;8.398;2024-03-08T00:16:27;15.07;;;8.40;;
8592;SDS011;4334;49.982;8.398;2024-03-08T00:18:55;15.53;;;8.60;;
8592;SDS011;4334;49.982;8.398;2024-03-08T00:21:22;17.37;;;8.13;;
8592;SDS011;4334;49.982;8.398;2024-03-08T00:23:49;14.47;;;8.47;;
8592;SDS011;4334;49.982;8.398;2024-03-08T00:26:15;13.93;;;8.07;;
8592;SDS011;4334;49.982;8.398;2024-03-08T00:28:42;13.87;;;7.97;;
8592;SDS011;4334;49.982;8.398;2024-03-08T00:31:09;15.47;;;8.23;;
8592;SDS011;4334;49.982;8.398;2024-03-08T00:33:35;14.43;;;8.20;;
8592;SDS011;4334;49.982;8.398;2024-03-08T00:36:04;14.90;;;7.73;;
8592;SDS011;4334;49.982;8.398;2024-03-08T00:38:32;15.00;;;7.90;;
8592;SDS011;4334;49.982;8.398;2024-03-08T00:40:59;14.03;;;8.53;;
8592;SDS011;4334;49.982;8.398;2024-03-08T00:43:27;15.17;;;7.93;;
8592;SDS011;4334;49.982;8.398;2024-03-08T00:45:55;15.03;;;7.80;;
8592;SDS011;4334;49.982;8.398;2024-03-08T00:48:22;17.40;;;8.60;;
8592;SDS011;4334;49.982;8.398;2024-03-08T00:50:49;15.77;;;8.00;;
8592;SDS011;4334;49.982;8.398;2024-03-08T00:53:17;12.83;;;7.70;;
8592;SDS011;4334;49.982;8.398;2024-03-08T00:55:44;14.90;;;8.00;;
8592;SDS011;4334;49.982;8.398;2024-03-08T00:58:11;15.20;;;7.43;;
8592;SDS011;4334;49.982;8.398;2024-03-08T01:00:38;14.03;;;8.43;;
8592;SDS011;4334;49.982;8.398;2024-03-08T01:03:04;14.73;;;7.27;;
8592;SDS011;4334;49.982;8.398;2024-03-08T01:05:31;17.50;;;8.70;;
8592;SDS011;4334;49.982;8.398;2024-03-08T01:07:58;14.80;;;7.30;;
8592;SDS011;4334;49.982;8.398;2024-03-08T01:10:26;12.67;;;8.03;;
8592;SDS011;4334;49.982;8.398;2024-03-08T01:12:53;16.43;;;8.13;;
8592;SDS011;4334;49.982;8.398;2024-03-08T01:15:21;14.63;;;8.20;;
8592;SDS011;4334;49.982;8.398;2024-03-08T01:17:48;14.27;;;7.93;;
8592;SDS011;4334;49.982;8.398;2024-03-08T01:20:15;15.83;;;8.50;;
8592;SDS011;4334;49.982;8.398;2024-03-08T01:22:43;15.60;;;8.53;;
8592;SDS011;4334;49.982;8.398;2024-03-08T01:25:09;15.77;;;8.23;;
8592;SDS011;4334;49.982;8.398;2024-03-08T01:27:37;17.93;;;8.93;;
8592;SDS011;4334;49.982;8.398;2024-03-08T01:30:04;23.67;;;8.53;;
8592;SDS011;4334;49.982;8.398;2024-03-08T01:32:33;14.70;;;7.90;;
8592;SDS011;4334;49.982;8.398;2024-03-08T01:34:59;14.60;;;7.77;;
8592;SDS011;4334;49.982;8.398;2024-03-08T01:37:27;15.13;;;7.80;;
8592;SDS011;4334;49.982;8.398;2024-03-08T01:39:54;15.10;;;7.47;;
8592;SDS011;4334;49.982;8.398;2024-03-08T01:42:21;12.17;;;7.53;;
8592;SDS011;4334;49.982;8.398;2024-03-08T01:44:49;17.07;;;9.07;;
8592;SDS011;4334;49.982;8.398;2024-03-08T01:47:16;14.37;;;7.83;;
8592;SDS011;4334;49.982;8.398;2024-03-08T01:49:43;16.03;;;8.23;;
8592;SDS011;4334;49.982;8.398;2024-03-08T01:52:10;13.70;;;7.87;;
8592;SDS011;4334;49.982;8.398;2024-03-08T01:54:37;13.43;;;7.53;;
8592;SDS011;4334;49.982;8.398;2024-03-08T01:57:06;14.33;;;7.67;;
8592;SDS011;4334;49.982;8.398;2024-03-08T01:59:32;13.50;;;7.93;;
8592;SDS011;4334;49.982;8.398;2024-03-08T02:02:01;15.63;;;7.40;;
8592;SDS011;4334;49.982;8.398;2024-03-08T02:04:29;15.97;;;8.07;;
8592;SDS011;4334;49.982;8.398;2024-03-08T02:06:56;14.90;;;8.23;;
8592;SDS011;4334;49.982;8.398;2024-03-08T02:09:23;15.20;;;7.97;;
8592;SDS011;4334;49.982;8.398;2024-03-08T02:11:50;16.43;;;7.43;;
8592;SDS011;4334;49.982;8.398;2024-03-08T02:14:19;13.40;;;7.07;;
8592;SDS011;4334;49.982;8.398;2024-03-08T02:16:46;13.37;;;7.87;;
8592;SDS011;4334;49.982;8.398;2024-03-08T02:19:14;14.60;;;7.40;;
8592;SDS011;4334;49.982;8.398;2024-03-08T02:21:42;12.07;;;6.30;;
8592;SDS011;4334;49.982;8.398;2024-03-08T02:24:12;11.53;;;7.53;;
8592;SDS011;4334;49.982;8.398;2024-03-08T02:26:38;14.00;;;7.83;;
8592;SDS011;4334;49.982;8.398;2024-03-08T02:29:07;13.93;;;7.50;;
8592;SDS011;4334;49.982;8.398;2024-03-08T02:31:34;14.83;;;7.80;;
8592;SDS011;4334;49.982;8.398;2024-03-08T02:34:00;18.43;;;8.53;;
8592;SDS011;4334;49.982;8.398;2024-03-08T02:36:27;15.20;;;7.67;;
8592;SDS011;4334;49.982;8.398;2024-03-08T02:38:55;13.67;;;7.43;;
8592;SDS011;4334;49.982;8.398;2024-03-08T02:41:22;13.13;;;7.90;;
8592;SDS011;4334;49.982;8.398;2024-03-08T02:43:48;18.83;;;8.20;;
8592;SDS011;4334;49.982;8.398;2024-03-08T02:46:15;15.47;;;8.67;;
8592;SDS011;4334;49.982;8.398;2024-03-08T02:48:42;13.37;;;7.77;;
8592;SDS011;4334;49.982;8.398;2024-03-08T02:51:09;17.67;;;9.33;;
8592;SDS011;4334;49.982;8.398;2024-03-08T02:53:36;13.03;;;7.27;;
8592;SDS011;4334;49.982;8.398;2024-03-08T02:56:04;13.70;;;7.73;;
8592;SDS011;4334;49.982;8.398;2024-03-08T02:58:33;15.37;;;7.70;;
8592;SDS011;4334;49.982;8.398;2024-03-08T03:01:00;17.47;;;8.23;;
8592;SDS011;4334;49.982;8.398;2024-03-08T03:03:27;12.13;;;6.70;;
8592;SDS011;4334;49.982;8.398;2024-03-08T03:05:53;15.27;;;7.40;;
8592;SDS011;4334;49.982;8.398;2024-03-08T03:08:21;22.40;;;8.90;;
8592;SDS011;4334;49.982;8.398;2024-03-08T03:10:48;18.87;;;7.87;;
8592;SDS011;4334;49.982;8.398;2024-03-08T03:13:17;12.93;;;7.77;;
8592;SDS011;4334;49.982;8.398;2024-03-08T03:15:45;13.30;;;7.77;;
8592;SDS011;4334;49.982;8.398;2024-03-08T03:18:12;20.20;;;8.87;;
8592;SDS011;4334;49.982;8.398;2024-03-08T03:20:40;14.43;;;7.40;;
8592;SDS011;4334;49.982;8.398;2024-03-08T03:23:07;18.00;;;8.27;;
8592;SDS011;4334;49.982;8.398;2024-03-08T03:25:34;17.57;;;8.87;;
8592;SDS011;4334;49.982;8.398;2024-03-08T03:28:03;14.53;;;8.17;;
8592;SDS011;4334;49.982;8.398;2024-03-08T03:30:34;19.13;;;8.10;;
8592;SDS011;4334;49.982;8.398;2024-03-08T03:33:00;16.53;;;8.40;;
8592;SDS011;4334;49.982;8.398;2024-03-08T03:35:31;17.53;;;9.27;;
8592;SDS011;4334;49.982;8.398;2024-03-08T03:37:59;15.87;;;8.10;;
8592;SDS011;4334;49.982;8.398;2024-03-08T03:40:31;15.37;;;8.23;;
8592;SDS011;4334;49.982;8.398;2024-03-08T03:42:58;15.40;;;7.60;;
8592;SDS011;4334;49.982;8.398;2024-03-08T03:45:25;18.73;;;9.30;;
8592;SDS011;4334;49.982;8.398;2024-03-08T03:47:53;15.67;;;8.40;;
8592;SDS011;4334;49.982;8.398;2024-03-08T03:50:20;17.87;;;8.23;;
8592;SDS011;4334;49.982;8.398;2024-03-08T03:52:48;15.17;;;7.53;;
8592;SDS011;4334;49.982;8.398;2024-03-08T03:55:15;16.23;;;8.33;;
8592;SDS011;4334;49.982;8.398;2024-03-08T03:57:42;16.40;;;7.80;;
8592;SDS011;4334;49.982;8.398;2024-03-08T04:00:11;15.57;;;8.07;;
8592;SDS011;4334;49.982;8.398;2024-03-08T04:02:38;15.07;;;8.70;;
8592;SDS011;4334;49.982;8.398;2024-03-08T04:05:08;14.23;;;8.07;;
8592;SDS011;4334;49.982;8.398;2024-03-08T04:07:36;18.00;;;7.63;;
8592;SDS011;4334;49.982;8.398;2024-03-08T04:10:04;15.40;;;8.73;;
8592;SDS011;4334;49.982;8.398;2024-03-08T04:12:32;18.97;;;8.40;;
8592;SDS011;4334;49.982;8.398;2024-03-08T04:14:58;16.47;;;7.73;;
8592;SDS011;4334;49.982;8.398;2024-03-08T04:17:25;14.30;;;8.07;;
8592;SDS011;4334;49.982;8.398;2024-03-08T04:19:52;17.53;;;9.40;;
8592;SDS011;4334;49.982;8.398;2024-03-08T04:22:20;16.60;;;8.27;;
8592;SDS011;4334;49.982;8.398;2024-03-08T04:24:47;16.03;;;8.40;;
8592;SDS011;4334;49.982;8.398;2024-03-08T04:27:14;18.13;;;9.03;;
8592;SDS011;4334;49.982;8.398;2024-03-08T04:29:41;16.80;;;8.40;;
8592;SDS011;4334;49.982;8.398;2024-03-08T04:32:08;17.70;;;8.60;;
8592;SDS011;4334;49.982;8.398;2024-03-08T04:34:38;19.30;;;9.20;;
8592;SDS011;4334;49.982;8.398;2024-03-08T04:37:05;19.93;;;8.93;;
8592;SDS011;4334;49.982;8.398;2024-03-08T04:39:33;18.90;;;8.93;;
8592;SDS011;4334;49.982;8.398;2024-03-08T04:42:02;14.63;;;8.40;;
8592;SDS011;4334;49.982;8.398;2024-03-08T04:44:31;19.80;;;8.63;;
8592;SDS011;4334;49.982;8.398;2024-03-08T04:46:58;16.97;;;8.70;;
8592;SDS011;4334;49.982;8.398;2024-03-08T04:49:25;20.73;;;8.67;;
8592;SDS011;4334;49.982;8.398;2024-03-08T04:51:53;19.13;;;9.23;;
8592;SDS011;4334;49.982;8.398;2024-03-08T04:54:19;15.10;;;8.50;;
8592;SDS011;4334;49.982;8.398;2024-03-08T04:56:47;18.20;;;9.97;;
8592;SDS011;4334;49.982;8.398;2024-03-08T04:59:14;19.47;;;8.80;;
8592;SDS011;4334;49.982;8.398;2024-03-08T05:01:41;15.77;;;7.50;;
8592;SDS011;4334;49.982;8.398;2024-03-08T05:04:08;17.83;;;8.90;;
8592;SDS011;4334;49.982;8.398;2024-03-08T05:06:35;16.77;;;8.10;;
8592;SDS011;4334;49.982;8.398;2024-03-08T05:09:01;15.07;;;8.27;;
8592;SDS011;4334;49.982;8.398;2024-03-08T05:11:38;15.00;;;8.33;;
8592;SDS011;4334;49.982;8.398;2024-03-08T05:14:06;18.23;;;9.47;;
8592;SDS011;4334;49.982;8.398;2024-03-08T05:16:33;19.53;;;9.27;;
8592;SDS011;4334;49.982;8.398;2024-03-08T05:19:00;16.63;;;8.13;;
8592;SDS011;4334;49.982;8.398;2024-03-08T05:21:27;19.63;;;9.87;;
8592;SDS011;4334;49.982;8.398;2024-03-08T05:23:54;17.27;;;8.30;;
8592;SDS011;4334;49.982;8.398;2024-03-08T05:26:20;20.87;;;9.30;;
8592;SDS011;4334;49.982;8.398;2024-03-08T05:28:48;22.07;;;10.30;;
8592;SDS011;4334;49.982;8.398;2024-03-08T05:31:19;18.37;;;9.20;;
8592;SDS011;4334;49.982;8.398;2024-03-08T05:33:47;19.97;;;8.70;;
8592;SDS011;4334;49.982;8.398;2024-03-08T05:36:14;18.20;;;9.07;;
8592;SDS011;4334;49.982;8.398;2024-03-08T05:38:41;19.40;;;8.67;;
8592;SDS011;4334;49.982;8.398;2024-03-08T05:41:08;18.13;;;9.87;;
8592;SDS011;4334;49.982;8.398;2024-03-08T05:43:35;18.63;;;9.37;;
8592;SDS011;4334;49.982;8.398;2024-03-08T05:46:01;21.20;;;10.73;;
8592;SDS011;4334;49.982;8.398;2024-03-08T05:48:30;23.13;;;10.43;;
8592;SDS011;4334;49.982;8.398;2024-03-08T05:50:58;20.33;;;9.93;;
8592;SDS011;4334;49.982;8.398;2024-03-08T05:53:26;19.67;;;10.40;;
8592;SDS011;4334;49.982;8.398;2024-03-08T05:55:55;16.77;;;8.97;;
8592;SDS011;4334;49.982;8.398;2024-03-08T05:58:22;21.93;;;9.63;;
8592;SDS011;4334;49.982;8.398;2024-03-08T06:00:49;19.43;;;10.07;;
8592;SDS011;4334;49.982;8.398;2024-03-08T06:03:15;18.77;;;8.90;;
8592;SDS011;4334;49.982;8.398;2024-03-08T06:05:46;18.83;;;10.37;;
8592;SDS011;4334;49.982;8.398;2024-03-08T06:08:13;21.47;;;9.63;;
8592;SDS011;4334;49.982;8.398;2024-03-08T06:10:40;23.13;;;10.97;;
8592;SDS011;4334;49.982;8.398;2024-03-08T06:13:07;20.30;;;9.80;;
8592;SDS011;4334;49.982;8.398;2024-03-08T06:15:34;24.03;;;10.47;;
8592;SDS011;4334;49.982;8.398;2024-03-08T06:18:01;22.23;;;9.90;;
8592;SDS011;4334;49.982;8.398;2024-03-08T06:20:27;20.07;;;9.27;;
8592;SDS011;4334;49.982;8.398;2024-03-08T06:22:55;21.03;;;9.77;;
8592;SDS011;4334;49.982;8.398;2024-03-08T06:25:22;21.30;;;10.13;;
8592;SDS011;4334;49.982;8.398;2024-03-08T06:27:49;23.90;;;10.67;;
8592;SDS011;4334;49.982;8.398;2024-03-08T06:30:16;20.07;;;10.27;;
8592;SDS011;4334;49.982;8.398;2024-03-08T06:32:45;20.73;;;10.23;;
8592;SDS011;4334;49.982;8.398;2024-03-08T06:35:12;23.50;;;10.00;;
8592;SDS011;4334;49.982;8.398;2024-03-08T06:37:40;21.43;;;10.70;;
8592;SDS011;4334;49.982;8.398;2024-03-08T06:40:11;19.83;;;10.10;;
8592;SDS011;4334;49.982;8.398;2024-03-08T06:42:39;19.63;;;9.73;;
8592;SDS011;4334;49.982;8.398;2024-03-08T06:45:06;20.87;;;10.87;;
8592;SDS011;4334;49.982;8.398;2024-03-08T06:47:35;21.30;;;9.77;;
8592;SDS011;4334;49.982;8.398;2024-03-08T06:50:02;20.23;;;10.93;;
8592;SDS011;4334;49.982;8.398;2024-03-08T06:52:30;21.70;;;10.37;;
8592;SDS011;4334;49.982;8.398;2024-03-08T06:54:58;18.60;;;9.97;;
8592;SDS011;4334;49.982;8.398;2024-03-08T06:57:28;21.50;;;10.07;;
8592;SDS011;4334;49.982;8.398;2024-03-08T06:59:54;20.07;;;9.97;;
8592;SDS011;4334;49.982;8.398;2024-03-08T07:02:22;19.33;;;10.80;;
8592;SDS011;4334;49.982;8.398;2024-03-08T07:04:50;21.47;;;10.77;;
8592;SDS011;4334;49.982;8.398;2024-03-08T07:07:18;19.90;;;10.00;;
8592;SDS011;4334;49.982;8.398;2024-03-08T07:09:46;18.43;;;10.43;;
8592;SDS011;4334;49.982;8.398;2024-03-08T07:12:14;20.43;;;10.23;;
8592;SDS011;4334;49.982;8.398;2024-03-08T07:14:42;23.33;;;9.90;;
8592;SDS011;4334;49.982;8.398;2024-03-08T07:17:10;22.73;;;10.67;;
8592;SDS011;4334;49.982;8.398;2024-03-08T07:19:37;20.63;;;10.30;;
8592;SDS011;4334;49.982;8.398;2024-03-08T07:22:04;20.70;;;10.77;;
8592;SDS011;4334;49.982;8.398;2024-03-08T07:24:33;17.50;;;10.17;;
8592;SDS011;4334;49.982;8.398;2024-03-08T07:27:15;20.47;;;10.80;;
8592;SDS011;4334;49.982;8.398;2024-03-08T07:29:43;19.43;;;10.40;;
8592;SDS011;4334;49.982;8.398;2024-03-08T07:32:10;19.77;;;10.43;;
8592;SDS011;4334;49.982;8.398;2024-03-08T07:34:45;17.23;;;9.50;;
8592;SDS011;4334;49.982;8.398;2024-03-08T07:37:13;21.97;;;10.30;;
8592;SDS011;4334;49.982;8.398;2024-03-08T07:39:40;18.43;;;10.47;;
8592;SDS011;4334;49.982;8.398;2024-03-08T07:42:07;23.97;;;10.70;;
8592;SDS011;4334;49.982;8.398;2024-03-08T07:44:33;15.50;;;9.10;;
8592;SDS011;4334;49.982;8.398;2024-03-08T07:47:01;17.03;;;10.10;;
8592;SDS011;4334;49.982;8.398;2024-03-08T07:49:28;17.47;;;10.07;;
8592;SDS011;4334;49.982;8.398;2024-03-08T07:51:56;16.63;;;9.43;;
8592;SDS011;4334;49.982;8.398;2024-03-08T07:54:22;20.20;;;9.73;;
8592;SDS011;4334;49.982;8.398;2024-03-08T07:56:50;19.43;;;10.10;;
8592;SDS011;4334;49.982;8.398;2024-03-08T07:59:17;17.33;;;9.87;;
8592;SDS011;4334;49.982;8.398;2024-03-08T08:01:46;23.10;;;10.47;;
8592;SDS011;4334;49.982;8.398;2024-03-08T08:04:14;17.70;;;9.50;;
8592;SDS011;4334;49.982;8.398;2024-03-08T08:06:43;16.50;;;9.50;;
8592;SDS011;4334;49.982;8.398;2024-03-08T08:09:09;16.77;;;9.93;;
8592;SDS011;4334;49.982;8.398;2024-03-08T08:11:39;26.60;;;10.60;;
8592;SDS011;4334;49.982;8.398;2024-03-08T08:14:08;26.97;;;10.37;;
8592;SDS011;4334;49.982;8.398;2024-03-08T08:16:35;21.07;;;9.73;;
8592;SDS011;4334;49.982;8.398;2024-03-08T08:19:02;18.70;;;10.13;;
8592;SDS011;4334;49.982;8.398;2024-03-08T08:21:34;19.10;;;9.87;;
8592;SDS011;4334;49.982;8.398;2024-03-08T08:24:02;19.77;;;10.27;;
8592;SDS011;4334;49.982;8.398;2024-03-08T08:26:28;15.83;;;9.77;;
8592;SDS011;4334;49.982;8.398;2024-03-08T08:28:55;14.50;;;9.07;;
8592;SDS011;4334;49.982;8.398;2024-03-08T08:31:22;15.93;;;9.73;;
8592;SDS011;4334;49.982;8.398;2024-03-08T08:33:49;17.70;;;9.90;;
8592;SDS011;4334;49.982;8.398;2024-03-08T08:36:18;16.47;;;9.37;;
8592;SDS011;4334;49.982;8.398;2024-03-08T08:38:46;21.27;;;9.33;;
8592;SDS011;4334;49.982;8.398;2024-03-08T08:41:13;17.03;;;9.13;;
8592;SDS011;4334;49.982;8.398;2024-03-08T08:43:41;17.20;;;9.53;;
8592;SDS011;4334;49.982;8.398;2024-03-08T08:46:09;16.30;;;9.63;;
8592;SDS011;4334;49.982;8.398;2024-03-08T08:48:38;18.27;;;9.23;;
8592;SDS011;4334;49.982;8.398;2024-03-08T08:51:06;16.50;;;9.70;;
8592;SDS011;4334;49.982;8.398;2024-03-08T08:53:32;15.23;;;8.80;;
8592;SDS011;4334;49.982;8.398;2024-03-08T08:56:01;15.13;;;8.97;;
8592;SDS011;4334;49.982;8.398;2024-03-08T08:58:28;16.40;;;8.77;;
8592;SDS011;4334;49.982;8.398;2024-03-08T09:00:55;15.33;;;9.47;;
8592;SDS011;4334;49.982;8.398;2024-03-08T09:03:21;17.33;;;9.53;;
8592;SDS011;4334;49.982;8.398;2024-03-08T09:05:49;14.73;;;8.43;;
8592;SDS011;4334;49.982;8.398;2024-03-08T09:08:16;14.97;;;8.87;;
8592;SDS011;4334;49.982;8.398;2024-03-08T09:10:42;16.23;;;8.70;;
8592;SDS011;4334;49.982;8.398;2024-03-08T09:13:10;15.53;;;9.73;;
8592;SDS011;4334;49.982;8.398;2024-03-08T09:15:38;14.97;;;9.67;;
8592;SDS011;4334;49.982;8.398;2024-03-08T09:18:05;16.03;;;9.33;;
8592;SDS011;4334;49.982;8.398;2024-03-08T09:20:32;15.87;;;8.80;;
8592;SDS011;4334;49.982;8.398;2024-03-08T09:22:59;15.73;;;9.10;;
8592;SDS011;4334;49.982;8.398;2024-03-08T09:25:25;14.47;;;9.00;;
8592;SDS011;4334;49.982;8.398;2024-03-08T09:27:53;14.53;;;8.57;;
8592;SDS011;4334;49.982;8.398;2024-03-08T09:30:21;16.40;;;10.00;;
8592;SDS011;4334;49.982;8.398;2024-03-08T09:32:48;14.67;;;9.13;;
8592;SDS011;4334;49.982;8.398;2024-03-08T09:35:16;15.00;;;8.47;;
8592;SDS011;4334;49.982;8.398;2024-03-08T09:37:43;14.17;;;8.27;;
8592;SDS011;4334;49.982;8.398;2024-03-08T09:40:09;15.87;;;8.63;;
8592;SDS011;4334;49.982;8.398;2024-03-08T09:42:40;14.13;;;8.50;;
8592;SDS011;4334;49.982;8.398;2024-03-08T09:45:08;15.27;;;8.27;;
8592;SDS011;4334;49.982;8.398;2024-03-08T09:47:37;16.63;;;8.60;;
8592;SDS011;4334;49.982;8.398;2024-03-08T09:50:07;15.63;;;8.53;;
8592;SDS011;4334;49.982;8.398;2024-03-08T09:52:35;17.23;;;8.47;;
8592;SDS011;4334;49.982;8.398;2024-03-08T09:55:04;18.57;;;8.97;;
8592;SDS011;4334;49.982;8.398;2024-03-08T09:57:32;12.33;;;7.47;;
8592;SDS011;4334;49.982;8.398;2024-03-08T09:59:59;16.23;;;8.07;;
8592;SDS011;4334;49.982;8.398;2024-03-08T10:02:26;14.50;;;7.73;;
8592;SDS011;4334;49.982;8.398;2024-03-08T10:04:54;11.77;;;7.57;;
8592;SDS011;4334;49.982;8.398;2024-03-08T10:07:23;14.47;;;8.20;;
8592;SDS011;4334;49.982;8.398;2024-03-08T10:09:51;13.03;;;6.63;;
8592;SDS011;4334;49.982;8.398;2024-03-08T10:12:18;11.90;;;7.03;;
8592;SDS011;4334;49.982;8.398;2024-03-08T10:14:46;10.60;;;6.93;;
8592;SDS011;4334;49.982;8.398;2024-03-08T10:17:12;11.27;;;7.33;;
8592;SDS011;4334;49.982;8.398;2024-03-08T10:19:39;10.50;;;6.73;;
8592;SDS011;4334;49.982;8.398;2024-03-08T10:22:17;13.77;;;6.77;;
8592;SDS011;4334;49.982;8.398;2024-03-08T10:24:44;12.20;;;7.30;;
8592;SDS011;4334;49.982;8.398;2024-03-08T10:27:11;11.13;;;6.53;;
8592;SDS011;4334;49.982;8.398;2024-03-08T10:29:38;10.10;;;6.67;;
8592;SDS011;4334;49.982;8.398;2024-03-08T10:32:09;13.40;;;7.30;;
8592;SDS011;4334;49.982;8.398;2024-03-08T10:34:36;14.60;;;7.27;;
8592;SDS011;4334;49.982;8.398;2024-03-08T10:37:03;15.30;;;7.50;;
8592;SDS011;4334;49.982;8.398;2024-03-08T10:39:34;10.77;;;6.77;;
8592;SDS011;4334;49.982;8.398;2024-03-08T10:42:02;12.03;;;7.53;;
8592;SDS011;4334;49.982;8.398;2024-03-08T10:44:38;11.97;;;7.07;;
8592;SDS011;4334;49.982;8.398;2024-03-08T10:47:12;12.50;;;7.63;;
8592;SDS011;4334;49.982;8.398;2024-03-08T10:49:46;13.63;;;7.77;;
8592;SDS011;4334;49.982;8.398;2024-03-08T10:52:18;13.97;;;8.10;;
8592;SDS011;4334;49.982;8.398;2024-03-08T10:54:47;13.37;;;7.20;;
8592;SDS011;4334;49.982;8.398;2024-03-08T10:57:14;11.10;;;7.03;;
8592;SDS011;4334;49.982;8.398;2024-03-08T10:59:43;12.70;;;7.07;;
8592;SDS011;4334;49.982;8.398;2024-03-08T11:02:11;11.13;;;7.07;;
8592;SDS011;4334;49.982;8.398;2024-03-08T11:04:38;10.83;;;7.33;;
8592;SDS011;4334;49.982;8.398;2024-03-08T11:07:05;11.43;;;6.80;;
8592;SDS011;4334;49.982;8.398;2024-03-08T11:09:33;11.47;;;7.17;;
8592;SDS011;4334;49.982;8.398;2024-03-08T11:12:22;9.87;;;6.63;;
8592;SDS011;4334;49.982;8.398;2024-03-08T11:14:54;12.60;;;7.87;;
8592;SDS011;4334;49.982;8.398;2024-03-08T11:17:22;12.80;;;7.20;;
8592;SDS011;4334;49.982;8.398;2024-03-08T11:19:52;12.70;;;6.80;;
8592;SDS011;4334;49.982;8.398;2024-03-08T11:22:27;13.97;;;7.63;;
8592;SDS011;4334;49.982;8.398;2024-03-08T11:24:58;14.93;;;7.80;;
8592;SDS011;4334;49.982;8.398;2024-03-08T11:27:29;10.90;;;6.97;;
8592;SDS011;4334;49.982;8.398;2024-03-08T11:30:01;11.63;;;7.20;;
8592;SDS011;4334;49.982;8.398;2024-03-08T11:32:36;12.03;;;7.27;;
8592;SDS011;4334;49.982;8.398;2024-03-08T11:35:05;12.17;;;7.40;;
8592;SDS011;4334;49.982;8.398;2024-03-08T11:37:34;13.33;;;8.10;;
8592;SDS011;4334;49.982;8.398;2024-03-08T11:40:01;10.63;;;7.60;;
8592;SDS011;4334;49.982;8.398;2024-03-08T11:42:31;12.50;;;7.83;;
8592;SDS011;4334;49.982;8.398;2024-03-08T11:44:57;13.37;;;8.43;;
8592;SDS011;4334;49.982;8.398;2024-03-08T11:47:24;12.63;;;8.00;;
8592;SDS011;4334;49.982;8.398;2024-03-08T11:49:51;13.37;;;8.27;;
8592;SDS011;4334;49.982;8.398;2024-03-08T11:52:18;12.77;;;7.47;;
8592;SDS011;4334;49.982;8.398;2024-03-08T11:54:48;11.73;;;7.73;;
8592;SDS011;4334;49.982;8.398;2024-03-08T11:57:18;12.50;;;7.80;;
8592;SDS011;4334;49.982;8.398;2024-03-08T11:59:50;13.47;;;8.07;;
8592;SDS011;4334;49.982;8.398;2024-03-08T12:02:17;13.23;;;8.23;;
8592;SDS011;4334;49.982;8.398;2024-03-08T12:04:44;14.53;;;8.70;;
8592;SDS011;4334;49.982;8.398;2024-03-08T12:07:12;15.90;;;8.47;;
8592;SDS011;4334;49.982;8.398;2024-03-08T12:09:39;13.60;;;8.63;;
8592;SDS011;4334;49.982;8.398;2024-03-08T12:12:11;12.07;;;8.00;;
8592;SDS011;4334;49.982;8.398;2024-03-08T12:14:38;12.40;;;7.93;;
8592;SDS011;4334;49.982;8.398;2024-03-08T12:17:09;15.37;;;8.50;;
8592;SDS011;4334;49.982;8.398;2024-03-08T12:19:36;13.30;;;8.63;;
8592;SDS011;4334;49.982;8.398;2024-03-08T12:22:07;13.60;;;7.77;;
8592;SDS011;4334;49.982;8.398;2024-03-08T12:24:35;13.63;;;8.40;;
8592;SDS011;4334;49.982;8.398;2024-03-08T12:27:17;13.73;;;7.97;;
8592;SDS011;4334;49.982;8.398;2024-03-08T12:29:44;13.47;;;8.07;;
8592;SDS011;4334;49.982;8.398;2024-03-08T12:32:13;12.03;;;7.63;;
8592;SDS011;4334;49.982;8.398;2024-03-08T12:34:39;13.30;;;8.57;;
8592;SDS011;4334;49.982;8.398;2024-03-08T12:37:06;13.37;;;8.33;;
8592;SDS011;4334;49.982;8.398;2024-03-08T12:39:34;12.37;;;7.70;;
8592;SDS011;4334;49.982;8.398;2024-03-08T12:42:02;11.67;;;8.33;;
8592;SDS011;4334;49.982;8.398;2024-03-08T12:44:29;12.83;;;8.10;;
8592;SDS011;4334;49.982;8.398;2024-03-08T12:46:55;11.53;;;7.67;;
8592;SDS011;4334;49.982;8.398;2024-03-08T12:49:25;14.67;;;8.00;;
8592;SDS011;4334;49.982;8.398;2024-03-08T12:51:52;14.17;;;8.50;;
8592;SDS011;4334;49.982;8.398;2024-03-08T12:54:18;12.83;;;8.17;;
8592;SDS011;4334;49.982;8.398;2024-03-08T12:56:48;13.57;;;8.87;;
8592;SDS011;4334;49.982;8.398;2024-03-08T12:59:18;13.90;;;8.50;;
8592;SDS011;4334;49.982;8.398;2024-03-08T13:01:46;10.87;;;7.37;;
8592;SDS011;4334;49.982;8.398;2024-03-08T13:04:13;11.43;;;7.27;;
8592;SDS011;4334;49.982;8.398;2024-03-08T13:06:41;11.57;;;7.77;;
8592;SDS011;4334;49.982;8.398;2024-03-08T13:09:08;12.40;;;8.40;;
8592;SDS011;4334;49.982;8.398;2024-03-08T13:11:35;13.00;;;8.23;;
8592;SDS011;4334;49.982;8.398;2024-03-08T13:14:02;12.53;;;8.03;;
8592;SDS011;4334;49.982;8.398;2024-03-08T13:16:30;12.97;;;8.30;;
8592;SDS011;4334;49.982;8.398;2024-03-08T13:18:56;15.07;;;7.93;;
8592;SDS011;4334;49.982;8.398;2024-03-08T13:21:24;14.37;;;8.47;;
8592;SDS011;4334;49.982;8.398;2024-03-08T13:23:52;13.43;;;7.63;;
8592;SDS011;4334;49.982;8.398;2024-03-08T13:26:20;12.30;;;7.67;;
8592;SDS011;4334;49.982;8.398;2024-03-08T13:28:47;12.57;;;8.30;;
8592;SDS011;4334;49.982;8.398;2024-03-08T13:31:18;11.27;;;7.50;;
8592;SDS011;4334;49.982;8.398;2024-03-08T13:33:45;11.70;;;7.83;;
8592;SDS011;4334;49.982;8.398;2024-03-08T13:36:12;13.23;;;8.13;;
8592;SDS011;4334;49.982;8.398;2024-03-08T13:38:41;12.52;;;7.70;;
8592;SDS011;4334;49.982;8.398;2024-03-08T13:41:10;12.93;;;8.27;;
8592;SDS011;4334;49.982;8.398;2024-03-08T13:43:39;14.87;;;9.13;;
8592;SDS011;4334;49.982;8.398;2024-03-08T13:46:06;13.80;;;8.00;;
8592;SDS011;4334;49.982;8.398;2024-03-08T13:48:35;11.87;;;7.93;;
8592;SDS011;4334;49.982;8.398;2024-03-08T13:51:02;10.87;;;7.27;;
8592;SDS011;4334;49.982;8.398;2024-03-08T13:53:29;11.93;;;7.43;;
8592;SDS011;4334;49.982;8.398;2024-03-08T13:55:56;12.97;;;8.47;;
8592;SDS011;4334;49.982;8.398;2024-03-08T13:58:24;13.33;;;7.70;;
8592;SDS011;4334;49.982;8.398;2024-03-08T14:00:51;12.43;;;8.13;;
8592;SDS011;4334;49.982;8.398;2024-03-08T14:03:18;12.43;;;8.13;;
8592;SDS011;4334;49.982;8.398;2024-03-08T14:05:46;12.57;;;7.33;;
8592;SDS011;4334;49.982;8.398;2024-03-08T14:08:12;12.90;;;7.90;;
8592;SDS011;4334;49.982;8.398;2024-03-08T14:10:41;13.87;;;7.70;;
8592;SDS011;4334;49.982;8.398;2024-03-08T14:13:07;14.50;;;8.50;;
8592;SDS011;4334;49.982;8.398;2024-03-08T14:15:38;10.87;;;7.33;;
8592;SDS011;4334;49.982;8.398;2024-03-08T14:18:07;11.53;;;7.47;;
8592;SDS011;4334;49.982;8.398;2024-03-08T14:20:34;13.43;;;7.97;;
8592;SDS011;4334;49.982;8.398;2024-03-08T14:23:01;12.63;;;7.70;;
8592;SDS011;4334;49.982;8.398;2024-03-08T14:25:28;14.33;;;8.30;;
8592;SDS011;4334;49.982;8.398;2024-03-08T14:27:55;13.70;;;8.23;;
8592;SDS011;4334;49.982;8.398;2024-03-08T14:30:23;19.93;;;8.30;;
8592;SDS011;4334;49.982;8.398;2024-03-08T14:33:04;12.60;;;7.50;;
8592;SDS011;4334;49.982;8.398;2024-03-08T14:35:33;12.77;;;7.90;;
8592;SDS011;4334;49.982;8.398;2024-03-08T14:38:00;13.00;;;7.60;;
8592;SDS011;4334;49.982;8.398;2024-03-08T14:40:27;11.57;;;7.80;;
8592;SDS011;4334;49.982;8.398;2024-03-08T14:42:55;12.30;;;7.60;;
8592;SDS011;4334;49.982;8.398;2024-03-08T14:45:22;15.00;;;8.53;;
8592;SDS011;4334;49.982;8.398;2024-03-08T14:47:51;12.90;;;7.93;;
8592;SDS011;4334;49.982;8.398;2024-03-08T14:50:21;11.67;;;7.83;;
8592;SDS011;4334;49.982;8.398;2024-03-08T14:52:49;12.10;;;7.60;;
8592;SDS011;4334;49.982;8.398;2024-03-08T14:55:16;21.40;;;7.40;;
8592;SDS011;4334;49.982;8.398;2024-03-08T14:57:44;13.20;;;8.40;;
8592;SDS011;4334;49.982;8.398;2024-03-08T15:00:12;11.57;;;7.73;;
8592;SDS011;4334;49.982;8.398;2024-03-08T15:02:43;13.50;;;7.47;;
8592;SDS011;4334;49.982;8.398;2024-03-08T15:05:10;12.07;;;7.27;;